PWSweather.com
Personal Weather Stations
Station Observations
KVAGLENALL
West Henrico, Glen Allen, VA 23060-6503

West HenricoGlen Allen, VA 23060-6503

Lat: 37.6554, Lon: -77.5693

Elevation: 273

Station Type: Davis Vantage Pro II

www.glenallenweather.com

High Low Average
Temperature 66.4°F19.1°C 37.1°F2.8°C 53.1°F11.7°C
Dew Point 50.6°F10.3°C 36.3°F2.4°C 45.0°F7.2°C
Winds 12.0 mph 19.3 kmh Calm Calm 4.0 mph S6.4 kmh S
Wind Gusts 14.1 mph22.7 kmh -- 6.0 mph9.7 kmh
Humidity 99% 49% 76%
Pressure 30.39 in1029.1 mb 29.97 in1014.9 mb -
Precipitation 0.00 in0.0 mm - -
Hour Temp Dew Point Humidity Winds Wind Gusts Pressure Precip Precip Rate Daily Precip Total
12:00 AM 41.7°F5.4°C 40.4°F4.7°C 95% Calm Calm -- 30.40 in1029.5 mb 0.00 in0.0 mm 0.00 in0.0 mm 0.00 in0.0 mm
12:15 AM 41.7°F5.4°C 40.4°F4.7°C 95% Calm Calm -- 30.40 in1029.5 mb 0.00 in0.0 mm 0.00 in0.0 mm 0.00 in0.0 mm
12:30 AM 41.3°F5.2°C 40.3°F4.6°C 96% Calm Calm -- 30.40 in1029.5 mb 0.00 in0.0 mm 0.00 in0.0 mm 0.00 in0.0 mm
12:45 AM 41.1°F5.1°C 40.1°F4.5°C 96% Calm Calm -- 30.39 in1029.1 mb 0.00 in0.0 mm 0.00 in0.0 mm 0.00 in0.0 mm
01:00 AM 41.1°F5.1°C 40.1°F4.5°C 96% Calm Calm -- 30.39 in1029.1 mb 0.00 in0.0 mm 0.00 in0.0 mm 0.00 in0.0 mm
01:15 AM 40.7°F4.8°C 39.7°F4.3°C 96% Calm Calm -- 30.39 in1029.1 mb 0.00 in0.0 mm 0.00 in0.0 mm 0.00 in0.0 mm
01:30 AM 40.7°F4.8°C 39.7°F4.3°C 96% Calm Calm -- 30.39 in1029.1 mb 0.00 in0.0 mm 0.00 in0.0 mm 0.00 in0.0 mm
01:45 AM 40.6°F4.8°C 39.6°F4.2°C 96% Calm Calm -- 30.39 in1029.1 mb 0.00 in0.0 mm 0.00 in0.0 mm 0.00 in0.0 mm
02:00 AM 40.6°F4.8°C 39.6°F4.2°C 96% Calm Calm -- 30.39 in1029.1 mb 0.00 in0.0 mm 0.00 in0.0 mm 0.00 in0.0 mm
02:15 AM 40.3°F4.6°C 39.3°F4.1°C 96% 2.0 mph S3.2 kmh S 2.0 mph3.2 kmh 30.39 in1029.1 mb 0.00 in0.0 mm 0.00 in0.0 mm 0.00 in0.0 mm
02:30 AM 40.2°F4.6°C 39.2°F4.0°C 96% Calm Calm 1.0 mph1.6 kmh 30.38 in1028.8 mb 0.00 in0.0 mm 0.00 in0.0 mm 0.00 in0.0 mm
02:45 AM 40.0°F4.4°C 39.2°F4.0°C 97% Calm Calm -- 30.38 in1028.8 mb 0.00 in0.0 mm 0.00 in0.0 mm 0.00 in0.0 mm
03:00 AM 39.8°F4.3°C 39.0°F3.9°C 97% Calm Calm -- 30.38 in1028.8 mb 0.00 in0.0 mm 0.00 in0.0 mm 0.00 in0.0 mm
03:15 AM 39.5°F4.2°C 38.5°F3.6°C 96% Calm Calm -- 30.38 in1028.8 mb 0.00 in0.0 mm 0.00 in0.0 mm 0.00 in0.0 mm
03:30 AM 39.4°F4.1°C 38.6°F3.7°C 97% Calm Calm -- 30.38 in1028.8 mb 0.00 in0.0 mm 0.00 in0.0 mm 0.00 in0.0 mm
03:45 AM 39.2°F4.0°C 38.4°F3.6°C 97% Calm Calm 1.0 mph1.6 kmh 30.38 in1028.8 mb 0.00 in0.0 mm 0.00 in0.0 mm 0.00 in0.0 mm
04:00 AM 39.2°F4.0°C 38.4°F3.6°C 97% Calm Calm -- 30.38 in1028.8 mb 0.00 in0.0 mm 0.00 in0.0 mm 0.00 in0.0 mm
04:15 AM 39.0°F3.9°C 38.2°F3.4°C 97% Calm Calm -- 30.37 in1028.4 mb 0.00 in0.0 mm 0.00 in0.0 mm 0.00 in0.0 mm
04:30 AM 38.9°F3.8°C 38.1°F3.4°C 97% Calm Calm -- 30.38 in1028.8 mb 0.00 in0.0 mm 0.00 in0.0 mm 0.00 in0.0 mm
04:45 AM 38.6°F3.7°C 37.8°F3.2°C 97% Calm Calm -- 30.37 in1028.4 mb 0.00 in0.0 mm 0.00 in0.0 mm 0.00 in0.0 mm
05:00 AM 38.4°F3.6°C 37.6°F3.1°C 97% Calm Calm -- 30.37 in1028.4 mb 0.00 in0.0 mm 0.00 in0.0 mm 0.00 in0.0 mm
05:15 AM 38.4°F3.6°C 37.6°F3.1°C 97% Calm Calm -- 30.38 in1028.8 mb 0.00 in0.0 mm 0.00 in0.0 mm 0.00 in0.0 mm
05:30 AM 38.2°F3.4°C 37.4°F3.0°C 97% Calm Calm -- 30.38 in1028.8 mb 0.00 in0.0 mm 0.00 in0.0 mm 0.00 in0.0 mm
05:45 AM 38.1°F3.4°C 37.3°F2.9°C 97% Calm Calm -- 30.38 in1028.8 mb 0.00 in0.0 mm 0.00 in0.0 mm 0.00 in0.0 mm
06:00 AM 37.8°F3.2°C 37.0°F2.8°C 97% Calm Calm -- 30.38 in1028.8 mb 0.00 in0.0 mm 0.00 in0.0 mm 0.00 in0.0 mm
06:15 AM 37.6°F3.1°C 36.8°F2.7°C 97% Calm Calm -- 30.38 in1028.8 mb 0.00 in0.0 mm 0.00 in0.0 mm 0.00 in0.0 mm
06:30 AM 37.3°F2.9°C 36.5°F2.5°C 97% Calm Calm -- 30.39 in1029.1 mb 0.00 in0.0 mm 0.00 in0.0 mm 0.00 in0.0 mm
06:45 AM 37.3°F2.9°C 36.5°F2.5°C 97% Calm Calm -- 30.38 in1028.8 mb 0.00 in0.0 mm 0.00 in0.0 mm 0.00 in0.0 mm
07:00 AM 37.4°F3.0°C 36.6°F2.6°C 97% Calm Calm -- 30.38 in1028.8 mb 0.00 in0.0 mm 0.00 in0.0 mm 0.00 in0.0 mm
07:15 AM 37.2°F2.9°C 36.4°F2.4°C 97% Calm Calm -- 30.38 in1028.8 mb 0.00 in0.0 mm 0.00 in0.0 mm 0.00 in0.0 mm
07:30 AM 37.1°F2.8°C 36.3°F2.4°C 97% Calm Calm -- 30.38 in1028.8 mb 0.01 in0.3 mm 0.04 in1.0 mm 0.01 in0.3 mm
07:45 AM 37.4°F3.0°C 36.6°F2.6°C 97% Calm Calm -- 30.38 in1028.8 mb 0.01 in0.3 mm 0.00 in0.0 mm 0.01 in0.3 mm
08:00 AM 38.2°F3.4°C 37.7°F3.2°C 98% 2.0 mph S3.2 kmh S 2.0 mph3.2 kmh 30.38 in1028.8 mb 0.01 in0.3 mm 0.00 in0.0 mm 0.01 in0.3 mm
08:15 AM 39.3°F4.1°C 38.8°F3.8°C 98% Calm Calm -- 30.38 in1028.8 mb 0.01 in0.3 mm 0.00 in0.0 mm 0.01 in0.3 mm
08:30 AM 41.1°F5.1°C 40.6°F4.8°C 98% 3.0 mph SSW4.8 kmh SSW 5.1 mph8.2 kmh 30.38 in1028.8 mb 0.00 in0.0 mm 0.00 in0.0 mm 0.01 in0.3 mm
08:45 AM 44.3°F6.8°C 44.1°F6.7°C 99% 1.0 mph SSW1.6 kmh SSW 4.0 mph6.4 kmh 30.38 in1028.8 mb 0.00 in0.0 mm 0.00 in0.0 mm 0.01 in0.3 mm
09:00 AM 46.7°F8.2°C 44.5°F6.9°C 92% 2.0 mph S3.2 kmh S 4.0 mph6.4 kmh 30.38 in1028.8 mb 0.00 in0.0 mm 0.00 in0.0 mm 0.01 in0.3 mm
09:15 AM 48.8°F9.3°C 45.2°F7.3°C 87% 3.0 mph SW4.8 kmh SW 6.1 mph9.8 kmh 30.38 in1028.8 mb 0.00 in0.0 mm 0.00 in0.0 mm 0.01 in0.3 mm
09:30 AM 50.9°F10.5°C 45.9°F7.7°C 83% 4.0 mph SW6.4 kmh SW 7.1 mph11.4 kmh 30.38 in1028.8 mb 0.00 in0.0 mm 0.00 in0.0 mm 0.01 in0.3 mm
09:45 AM 52.9°F11.6°C 46.5°F8.1°C 79% 8.0 mph SW12.9 kmh SW 8.1 mph13.0 kmh 30.38 in1028.8 mb 0.00 in0.0 mm 0.00 in0.0 mm 0.01 in0.3 mm
10:00 AM 54.5°F12.5°C 47.4°F8.6°C 77% 6.0 mph SSW9.7 kmh SSW 6.1 mph9.8 kmh 30.37 in1028.4 mb 0.00 in0.0 mm 0.00 in0.0 mm 0.01 in0.3 mm
10:15 AM 56.3°F13.5°C 47.8°F8.8°C 73% 3.0 mph SW4.8 kmh SW 6.1 mph9.8 kmh 30.37 in1028.4 mb 0.00 in0.0 mm 0.00 in0.0 mm 0.01 in0.3 mm
10:30 AM 57.5°F14.2°C 47.4°F8.6°C 69% 4.0 mph S6.4 kmh S 10.1 mph16.3 kmh 30.36 in1028.1 mb 0.00 in0.0 mm 0.00 in0.0 mm 0.01 in0.3 mm
10:45 AM 59.0°F15.0°C 48.9°F9.4°C 69% 9.0 mph S14.5 kmh S 9.1 mph14.6 kmh 30.36 in1028.1 mb 0.00 in0.0 mm 0.00 in0.0 mm 0.01 in0.3 mm
11:00 AM 59.6°F15.3°C 48.6°F9.2°C 67% 7.0 mph SSW11.3 kmh SSW 10.1 mph16.3 kmh 30.36 in1028.1 mb 0.00 in0.0 mm 0.00 in0.0 mm 0.01 in0.3 mm
11:15 AM 60.7°F15.9°C 48.1°F8.9°C 63% 6.0 mph S9.7 kmh S 10.1 mph16.3 kmh 30.35 in1027.8 mb 0.00 in0.0 mm 0.00 in0.0 mm 0.01 in0.3 mm
11:30 AM 61.7°F16.5°C 49.8°F9.9°C 65% 6.0 mph S9.7 kmh S 8.1 mph13.0 kmh 30.34 in1027.4 mb 0.00 in0.0 mm 0.00 in0.0 mm 0.01 in0.3 mm
11:45 AM 62.3°F16.8°C 49.1°F9.5°C 62% 2.0 mph S3.2 kmh S 5.1 mph8.2 kmh 30.33 in1027.1 mb 0.00 in0.0 mm 0.00 in0.0 mm 0.01 in0.3 mm
12:00 PM 62.2°F16.8°C 48.2°F9.0°C 60% 9.0 mph SSW14.5 kmh SSW 9.1 mph14.6 kmh 30.32 in1026.8 mb 0.00 in0.0 mm 0.00 in0.0 mm 0.01 in0.3 mm
12:15 PM 63.2°F17.3°C 48.2°F9.0°C 58% 7.0 mph SW11.3 kmh SW 10.1 mph16.3 kmh 30.31 in1026.4 mb 0.00 in0.0 mm 0.00 in0.0 mm 0.01 in0.3 mm
12:30 PM 64.0°F17.8°C 46.6°F8.1°C 53% 5.0 mph S8.0 kmh S 12.1 mph19.5 kmh 30.30 in1026.1 mb 0.00 in0.0 mm 0.00 in0.0 mm 0.01 in0.3 mm
12:45 PM 64.4°F18.0°C 46.4°F8.0°C 52% 4.0 mph SSW6.4 kmh SSW 12.1 mph19.5 kmh 30.29 in1025.7 mb 0.00 in0.0 mm 0.00 in0.0 mm 0.01 in0.3 mm
01:00 PM 65.1°F18.4°C 47.1°F8.4°C 52% 12.0 mph S19.3 kmh S 14.1 mph22.7 kmh 30.28 in1025.4 mb 0.00 in0.0 mm 0.00 in0.0 mm 0.01 in0.3 mm
01:15 PM 65.6°F18.7°C 50.0°F10.0°C 57% 5.0 mph S8.0 kmh S 8.1 mph13.0 kmh 30.27 in1025.1 mb 0.00 in0.0 mm 0.00 in0.0 mm 0.01 in0.3 mm
01:30 PM 65.3°F18.5°C 48.8°F9.3°C 55% 6.0 mph SSW9.7 kmh SSW 7.1 mph11.4 kmh 30.25 in1024.4 mb 0.00 in0.0 mm 0.00 in0.0 mm 0.01 in0.3 mm
01:45 PM 65.9°F18.8°C 47.8°F8.8°C 52% 5.0 mph S8.0 kmh S 7.1 mph11.4 kmh 30.24 in1024.0 mb 0.00 in0.0 mm 0.00 in0.0 mm 0.01 in0.3 mm
02:00 PM 65.7°F18.7°C 47.6°F8.7°C 52% 3.0 mph S4.8 kmh S 11.1 mph17.9 kmh 30.23 in1023.7 mb 0.00 in0.0 mm 0.00 in0.0 mm 0.01 in0.3 mm
02:15 PM 66.4°F19.1°C 48.3°F9.1°C 52% 4.0 mph SW6.4 kmh SW 6.1 mph9.8 kmh 30.22 in1023.4 mb 0.00 in0.0 mm 0.00 in0.0 mm 0.01 in0.3 mm
02:30 PM 66.2°F19.0°C 46.5°F8.1°C 49% 6.0 mph SW9.7 kmh SW 11.1 mph17.9 kmh 30.22 in1023.4 mb 0.00 in0.0 mm 0.00 in0.0 mm 0.01 in0.3 mm
02:45 PM 66.4°F19.1°C 47.8°F8.8°C 51% 5.0 mph SSW8.0 kmh SSW 7.1 mph11.4 kmh 30.20 in1022.7 mb 0.00 in0.0 mm 0.00 in0.0 mm 0.01 in0.3 mm
03:00 PM 66.1°F18.9°C 48.5°F9.2°C 53% 6.0 mph SSW9.7 kmh SSW 10.1 mph16.3 kmh 30.19 in1022.4 mb 0.00 in0.0 mm 0.00 in0.0 mm 0.01 in0.3 mm
03:15 PM 65.9°F18.8°C 47.8°F8.8°C 52% 12.0 mph SSW19.3 kmh SSW 14.1 mph22.7 kmh 30.18 in1022.0 mb 0.00 in0.0 mm 0.00 in0.0 mm 0.01 in0.3 mm
03:30 PM 65.9°F18.8°C 47.3°F8.5°C 51% 11.0 mph SE17.7 kmh SE 11.1 mph17.9 kmh 30.18 in1022.0 mb 0.00 in0.0 mm 0.00 in0.0 mm 0.01 in0.3 mm
03:45 PM 65.3°F18.5°C 47.8°F8.8°C 53% 2.0 mph SW3.2 kmh SW 8.1 mph13.0 kmh 30.18 in1022.0 mb 0.00 in0.0 mm 0.00 in0.0 mm 0.01 in0.3 mm
04:00 PM 65.6°F18.7°C 49.0°F9.4°C 55% 7.0 mph SSW11.3 kmh SSW 11.1 mph17.9 kmh 30.17 in1021.7 mb 0.00 in0.0 mm 0.00 in0.0 mm 0.01 in0.3 mm
04:15 PM 65.2°F18.4°C 48.7°F9.3°C 55% 5.0 mph SSW8.0 kmh SSW 8.1 mph13.0 kmh 30.17 in1021.7 mb 0.00 in0.0 mm 0.00 in0.0 mm 0.01 in0.3 mm
04:30 PM 64.4°F18.0°C 47.9°F8.8°C 55% 3.0 mph SSW4.8 kmh SSW 7.1 mph11.4 kmh 30.15 in1021.0 mb 0.00 in0.0 mm 0.00 in0.0 mm 0.01 in0.3 mm
04:45 PM 64.1°F17.8°C 48.1°F8.9°C 56% 7.0 mph SSW11.3 kmh SSW 10.1 mph16.3 kmh 30.15 in1021.0 mb 0.00 in0.0 mm 0.00 in0.0 mm 0.01 in0.3 mm
05:00 PM 63.5°F17.5°C 47.1°F8.4°C 55% 3.0 mph SE4.8 kmh SE 9.1 mph14.6 kmh 30.14 in1020.7 mb 0.00 in0.0 mm 0.00 in0.0 mm 0.01 in0.3 mm
05:15 PM 62.8°F17.1°C 47.4°F8.6°C 57% 11.0 mph SW17.7 kmh SW 11.1 mph17.9 kmh 30.13 in1020.3 mb 0.00 in0.0 mm 0.00 in0.0 mm 0.01 in0.3 mm
05:30 PM 62.4°F16.9°C 47.9°F8.8°C 59% 4.0 mph SSW6.4 kmh SSW 9.1 mph14.6 kmh 30.13 in1020.3 mb 0.00 in0.0 mm 0.00 in0.0 mm 0.01 in0.3 mm
05:45 PM 61.7°F16.5°C 48.1°F8.9°C 61% 5.0 mph S8.0 kmh S 7.1 mph11.4 kmh 30.13 in1020.3 mb 0.00 in0.0 mm 0.00 in0.0 mm 0.01 in0.3 mm
06:00 PM 61.3°F16.3°C 48.2°F9.0°C 62% 6.0 mph SSW9.7 kmh SSW 9.1 mph14.6 kmh 30.12 in1020.0 mb 0.00 in0.0 mm 0.00 in0.0 mm 0.01 in0.3 mm
06:15 PM 60.5°F15.8°C 48.3°F9.1°C 64% 5.0 mph S8.0 kmh S 6.1 mph9.8 kmh 30.12 in1020.0 mb 0.00 in0.0 mm 0.00 in0.0 mm 0.01 in0.3 mm
06:30 PM 59.9°F15.5°C 48.1°F8.9°C 65% 5.0 mph SSW8.0 kmh SSW 7.1 mph11.4 kmh 30.12 in1020.0 mb 0.00 in0.0 mm 0.00 in0.0 mm 0.01 in0.3 mm
06:45 PM 59.0°F15.0°C 47.7°F8.7°C 66% 5.0 mph SSW8.0 kmh SSW 5.1 mph8.2 kmh 30.12 in1020.0 mb 0.00 in0.0 mm 0.00 in0.0 mm 0.01 in0.3 mm
07:00 PM 58.2°F14.6°C 47.3°F8.5°C 67% 5.0 mph SSW8.0 kmh SSW 5.1 mph8.2 kmh 30.12 in1020.0 mb 0.00 in0.0 mm 0.00 in0.0 mm 0.01 in0.3 mm
07:15 PM 58.0°F14.4°C 47.5°F8.6°C 68% 5.0 mph S8.0 kmh S 6.1 mph9.8 kmh 30.11 in1019.6 mb 0.00 in0.0 mm 0.00 in0.0 mm 0.01 in0.3 mm
07:30 PM 57.5°F14.2°C 47.0°F8.3°C 68% 3.0 mph S4.8 kmh S 6.1 mph9.8 kmh 30.10 in1019.3 mb 0.00 in0.0 mm 0.00 in0.0 mm 0.01 in0.3 mm
07:45 PM 57.1°F13.9°C 47.4°F8.6°C 70% 3.0 mph SSW4.8 kmh SSW 4.0 mph6.4 kmh 30.09 in1019.0 mb 0.00 in0.0 mm 0.00 in0.0 mm 0.01 in0.3 mm
08:00 PM 56.8°F13.8°C 47.5°F8.6°C 71% 2.0 mph SSW3.2 kmh SSW 6.1 mph9.8 kmh 30.09 in1019.0 mb 0.00 in0.0 mm 0.00 in0.0 mm 0.01 in0.3 mm
08:15 PM 56.5°F13.6°C 47.6°F8.7°C 72% 2.0 mph SW3.2 kmh SW 8.1 mph13.0 kmh 30.09 in1019.0 mb 0.00 in0.0 mm 0.00 in0.0 mm 0.01 in0.3 mm
08:30 PM 56.6°F13.7°C 48.0°F8.9°C 73% 3.0 mph SW4.8 kmh SW 7.1 mph11.4 kmh 30.08 in1018.6 mb 0.00 in0.0 mm 0.00 in0.0 mm 0.01 in0.3 mm
08:45 PM 56.6°F13.7°C 48.4°F9.1°C 74% 3.0 mph S4.8 kmh S 4.0 mph6.4 kmh 30.08 in1018.6 mb 0.00 in0.0 mm 0.00 in0.0 mm 0.01 in0.3 mm
09:00 PM 56.4°F13.6°C 48.6°F9.2°C 75% 3.0 mph S4.8 kmh S 4.0 mph6.4 kmh 30.08 in1018.6 mb 0.00 in0.0 mm 0.00 in0.0 mm 0.01 in0.3 mm
09:15 PM 56.3°F13.5°C 48.8°F9.3°C 76% 3.0 mph S4.8 kmh S 7.1 mph11.4 kmh 30.07 in1018.3 mb 0.00 in0.0 mm 0.00 in0.0 mm 0.01 in0.3 mm
09:30 PM 56.8°F13.8°C 49.7°F9.8°C 77% 1.0 mph SE1.6 kmh SE 6.1 mph9.8 kmh 30.07 in1018.3 mb 0.00 in0.0 mm 0.00 in0.0 mm 0.01 in0.3 mm
09:45 PM 57.1°F13.9°C 49.6°F9.8°C 76% 3.0 mph SW4.8 kmh SW 5.1 mph8.2 kmh 30.06 in1017.9 mb 0.00 in0.0 mm 0.00 in0.0 mm 0.01 in0.3 mm
10:00 PM 57.0°F13.9°C 49.9°F9.9°C 77% 1.0 mph SSW1.6 kmh SSW 7.1 mph11.4 kmh 30.05 in1017.6 mb 0.00 in0.0 mm 0.00 in0.0 mm 0.01 in0.3 mm
10:15 PM 57.2°F14.0°C 49.7°F9.8°C 76% 4.0 mph SSW6.4 kmh SSW 7.1 mph11.4 kmh 30.04 in1017.3 mb 0.00 in0.0 mm 0.00 in0.0 mm 0.01 in0.3 mm
10:30 PM 57.1°F13.9°C 50.0°F10.0°C 77% 8.0 mph SW12.9 kmh SW 9.1 mph14.6 kmh 30.03 in1016.9 mb 0.00 in0.0 mm 0.00 in0.0 mm 0.01 in0.3 mm
10:45 PM 57.4°F14.1°C 50.2°F10.1°C 77% 7.0 mph S11.3 kmh S 14.1 mph22.7 kmh 30.02 in1016.6 mb 0.00 in0.0 mm 0.00 in0.0 mm 0.01 in0.3 mm
11:00 PM 58.5°F14.7°C 50.2°F10.1°C 74% 10.0 mph WSW16.1 kmh WSW 11.1 mph17.9 kmh 30.02 in1016.6 mb 0.00 in0.0 mm 0.00 in0.0 mm 0.01 in0.3 mm
11:15 PM 59.1°F15.1°C 50.1°F10.1°C 72% 11.0 mph SW17.7 kmh SW 14.1 mph22.7 kmh 30.01 in1016.3 mb 0.00 in0.0 mm 0.00 in0.0 mm 0.01 in0.3 mm
11:30 PM 59.2°F15.1°C 50.2°F10.1°C 72% 6.0 mph S9.7 kmh S 11.1 mph17.9 kmh 30.00 in1015.9 mb 0.00 in0.0 mm 0.00 in0.0 mm 0.01 in0.3 mm
11:45 PM 58.8°F14.9°C 50.2°F10.1°C 73% 6.0 mph SSW9.7 kmh SSW 10.1 mph16.3 kmh 29.99 in1015.6 mb 0.00 in0.0 mm 0.00 in0.0 mm 0.01 in0.3 mm